sensor_id;sensor_type;location;lat;lon;timestamp;pressure;altitude;pressure_sealevel;temperature;humidity
13314;BME280;6725;48.112;11.604;2023-11-19T00:00:07;94778.81;;;4.27;100.00
13314;BME280;6725;48.112;11.604;2023-11-19T00:02:38;94777.63;;;4.28;100.00
13314;BME280;6725;48.112;11.604;2023-11-19T00:05:04;94776.09;;;4.30;100.00
13314;BME280;6725;48.112;11.604;2023-11-19T00:07:29;94773.81;;;4.29;100.00
13314;BME280;6725;48.112;11.604;2023-11-19T00:09:54;94766.88;;;4.31;100.00
13314;BME280;6725;48.112;11.604;2023-11-19T00:12:20;94761.47;;;4.35;100.00
13314;BME280;6725;48.112;11.604;2023-11-19T00:14:46;94753.00;;;4.40;100.00
13314;BME280;6725;48.112;11.604;2023-11-19T00:17:11;94744.50;;;4.41;100.00
13314;BME280;6725;48.112;11.604;2023-11-19T00:19:37;94730.59;;;4.43;100.00
13314;BME280;6725;48.112;11.604;2023-11-19T00:22:02;94727.50;;;4.37;100.00
13314;BME280;6725;48.112;11.604;2023-11-19T00:24:29;94726.78;;;4.44;100.00
13314;BME280;6725;48.112;11.604;2023-11-19T00:26:55;94723.69;;;4.45;100.00
13314;BME280;6725;48.112;11.604;2023-11-19T00:29:21;94710.59;;;4.51;100.00
13314;BME280;6725;48.112;11.604;2023-11-19T00:31:47;94698.22;;;4.57;100.00
13314;BME280;6725;48.112;11.604;2023-11-19T00:34:12;94710.22;;;4.56;100.00
13314;BME280;6725;48.112;11.604;2023-11-19T00:36:38;94709.44;;;4.59;100.00
13314;BME280;6725;48.112;11.604;2023-11-19T00:39:04;94702.88;;;4.63;100.00
13314;BME280;6725;48.112;11.604;2023-11-19T00:41:30;94687.47;;;4.67;100.00
13314;BME280;6725;48.112;11.604;2023-11-19T00:43:56;94699.03;;;4.68;100.00
13314;BME280;6725;48.112;11.604;2023-11-19T00:46:21;94691.69;;;4.72;100.00
13314;BME280;6725;48.112;11.604;2023-11-19T00:48:46;94700.97;;;4.74;100.00
13314;BME280;6725;48.112;11.604;2023-11-19T00:51:12;94691.34;;;4.77;100.00
13314;BME280;6725;48.112;11.604;2023-11-19T00:53:38;94685.94;;;4.77;100.00
13314;BME280;6725;48.112;11.604;2023-11-19T00:56:03;94687.47;;;4.78;100.00
13314;BME280;6725;48.112;11.604;2023-11-19T00:58:29;94689.41;;;4.84;100.00
13314;BME280;6725;48.112;11.604;2023-11-19T01:00:54;94693.69;;;4.89;100.00
13314;BME280;6725;48.112;11.604;2023-11-19T01:03:19;94694.47;;;4.93;100.00
13314;BME280;6725;48.112;11.604;2023-11-19T01:05:45;94684.81;;;4.99;100.00
13314;BME280;6725;48.112;11.604;2023-11-19T01:08:12;94694.47;;;5.00;100.00
13314;BME280;6725;48.112;11.604;2023-11-19T01:10:37;94696.41;;;5.03;100.00
13314;BME280;6725;48.112;11.604;2023-11-19T01:13:03;94689.06;;;5.03;100.00
13314;BME280;6725;48.112;11.604;2023-11-19T01:15:31;94680.56;;;5.05;100.00
13314;BME280;6725;48.112;11.604;2023-11-19T01:17:56;94675.94;;;5.05;100.00
13314;BME280;6725;48.112;11.604;2023-11-19T01:20:22;94674.00;;;5.02;100.00
13314;BME280;6725;48.112;11.604;2023-11-19T01:22:47;94678.25;;;5.07;100.00
13314;BME280;6725;48.112;11.604;2023-11-19T01:25:13;94682.13;;;5.13;100.00
13314;BME280;6725;48.112;11.604;2023-11-19T01:27:39;94670.50;;;5.16;100.00
13314;BME280;6725;48.112;11.604;2023-11-19T01:30:05;94658.91;;;5.19;100.00
13314;BME280;6725;48.112;11.604;2023-11-19T01:32:31;94665.88;;;5.20;100.00
13314;BME280;6725;48.112;11.604;2023-11-19T01:34:57;94669.00;;;5.18;100.00
13314;BME280;6725;48.112;11.604;2023-11-19T01:37:23;94668.97;;;5.22;100.00
13314;BME280;6725;48.112;11.604;2023-11-19T01:39:48;94658.94;;;5.22;100.00
13314;BME280;6725;48.112;11.604;2023-11-19T01:42:14;94659.69;;;5.23;100.00
13314;BME280;6725;48.112;11.604;2023-11-19T01:44:39;94653.91;;;5.28;100.00
13314;BME280;6725;48.112;11.604;2023-11-19T01:47:04;94610.97;;;5.30;100.00
13314;BME280;6725;48.112;11.604;2023-11-19T01:49:31;94629.56;;;5.35;100.00
13314;BME280;6725;48.112;11.604;2023-11-19T01:51:57;94638.81;;;5.37;100.00
13314;BME280;6725;48.112;11.604;2023-11-19T01:54:23;94639.97;;;5.40;100.00
13314;BME280;6725;48.112;11.604;2023-11-19T01:56:48;94638.41;;;5.42;100.00
13314;BME280;6725;48.112;11.604;2023-11-19T01:59:14;94637.66;;;5.45;100.00
13314;BME280;6725;48.112;11.604;2023-11-19T02:01:41;94645.75;;;5.49;100.00
13314;BME280;6725;48.112;11.604;2023-11-19T02:04:08;94627.59;;;5.49;100.00
13314;BME280;6725;48.112;11.604;2023-11-19T02:06:34;94626.41;;;5.50;100.00
13314;BME280;6725;48.112;11.604;2023-11-19T02:09:00;94624.09;;;5.56;100.00
13314;BME280;6725;48.112;11.604;2023-11-19T02:11:28;94617.13;;;5.55;100.00
13314;BME280;6725;48.112;11.604;2023-11-19T02:13:55;94608.59;;;5.60;100.00
13314;BME280;6725;48.112;11.604;2023-11-19T02:16:21;94598.94;;;5.62;100.00
13314;BME280;6725;48.112;11.604;2023-11-19T02:18:46;94603.56;;;5.65;100.00
13314;BME280;6725;48.112;11.604;2023-11-19T02:21:12;94596.97;;;5.70;100.00
13314;BME280;6725;48.112;11.604;2023-11-19T02:23:40;94577.25;;;5.73;100.00
13314;BME280;6725;48.112;11.604;2023-11-19T02:26:26;94589.22;;;5.82;100.00
13314;BME280;6725;48.112;11.604;2023-11-19T02:28:54;94582.22;;;5.92;100.00
13314;BME280;6725;48.112;11.604;2023-11-19T02:31:19;94579.09;;;5.97;100.00
13314;BME280;6725;48.112;11.604;2023-11-19T02:33:45;94565.13;;;6.05;100.00
13314;BME280;6725;48.112;11.604;2023-11-19T02:36:11;94561.63;;;6.12;100.00
13314;BME280;6725;48.112;11.604;2023-11-19T02:38:36;94565.06;;;6.19;100.00
13314;BME280;6725;48.112;11.604;2023-11-19T02:41:06;94550.31;;;6.27;100.00
13314;BME280;6725;48.112;11.604;2023-11-19T02:43:35;94541.72;;;6.36;100.00
13314;BME280;6725;48.112;11.604;2023-11-19T02:46:02;94543.22;;;6.44;100.00
13314;BME280;6725;48.112;11.604;2023-11-19T02:48:29;94540.47;;;6.51;100.00
13314;BME280;6725;48.112;11.604;2023-11-19T02:50:55;94545.84;;;6.58;100.00
13314;BME280;6725;48.112;11.604;2023-11-19T02:53:23;94543.09;;;6.65;100.00
13314;BME280;6725;48.112;11.604;2023-11-19T02:55:50;94544.56;;;6.73;100.00
13314;BME280;6725;48.112;11.604;2023-11-19T02:58:16;94518.19;;;6.77;100.00
13314;BME280;6725;48.112;11.604;2023-11-19T03:00:49;94510.78;;;6.81;100.00
13314;BME280;6725;48.112;11.604;2023-11-19T03:03:23;94515.81;;;6.86;100.00
13314;BME280;6725;48.112;11.604;2023-11-19T03:05:53;94521.56;;;6.92;100.00
13314;BME280;6725;48.112;11.604;2023-11-19T03:08:19;94512.63;;;6.95;100.00
13314;BME280;6725;48.112;11.604;2023-11-19T03:10:44;94524.22;;;6.99;100.00
13314;BME280;6725;48.112;11.604;2023-11-19T03:13:12;94512.56;;;7.02;100.00
13314;BME280;6725;48.112;11.604;2023-11-19T03:15:39;94511.72;;;7.08;100.00
13314;BME280;6725;48.112;11.604;2023-11-19T03:18:04;94506.28;;;7.08;100.00
13314;BME280;6725;48.112;11.604;2023-11-19T03:20:30;94493.06;;;7.10;100.00
13314;BME280;6725;48.112;11.604;2023-11-19T03:22:55;94493.47;;;7.12;100.00
13314;BME280;6725;48.112;11.604;2023-11-19T03:25:24;94497.69;;;7.13;100.00
13314;BME280;6725;48.112;11.604;2023-11-19T03:27:50;94495.00;;;7.13;100.00
13314;BME280;6725;48.112;11.604;2023-11-19T03:30:16;94501.56;;;7.16;100.00
13314;BME280;6725;48.112;11.604;2023-11-19T03:32:42;94496.91;;;7.16;100.00
13314;BME280;6725;48.112;11.604;2023-11-19T03:35:08;94508.16;;;7.18;100.00
13314;BME280;6725;48.112;11.604;2023-11-19T03:37:34;94518.16;;;7.21;100.00
13314;BME280;6725;48.112;11.604;2023-11-19T03:39:59;94510.03;;;7.21;100.00
13314;BME280;6725;48.112;11.604;2023-11-19T03:42:28;94501.47;;;7.26;100.00
13314;BME280;6725;48.112;11.604;2023-11-19T03:44:55;94505.34;;;7.25;100.00
13314;BME280;6725;48.112;11.604;2023-11-19T03:47:21;94506.09;;;7.29;100.00
13314;BME280;6725;48.112;11.604;2023-11-19T03:49:50;94516.13;;;7.32;100.00
13314;BME280;6725;48.112;11.604;2023-11-19T03:52:17;94519.22;;;7.34;100.00
13314;BME280;6725;48.112;11.604;2023-11-19T03:54:42;94513.78;;;7.34;100.00
13314;BME280;6725;48.112;11.604;2023-11-19T03:57:07;94511.81;;;7.38;100.00
13314;BME280;6725;48.112;11.604;2023-11-19T03:59:35;94523.03;;;7.40;100.00
13314;BME280;6725;48.112;11.604;2023-11-19T04:02:01;94512.94;;;7.41;100.00
13314;BME280;6725;48.112;11.604;2023-11-19T04:04:28;94510.94;;;7.45;100.00
13314;BME280;6725;48.112;11.604;2023-11-19T04:06:54;94500.47;;;7.47;100.00
13314;BME280;6725;48.112;11.604;2023-11-19T04:09:20;94501.22;;;7.47;100.00
13314;BME280;6725;48.112;11.604;2023-11-19T04:11:45;94499.28;;;7.48;100.00
13314;BME280;6725;48.112;11.604;2023-11-19T04:14:12;94501.97;;;7.51;100.00
13314;BME280;6725;48.112;11.604;2023-11-19T04:16:38;94503.50;;;7.52;100.00
13314;BME280;6725;48.112;11.604;2023-11-19T04:19:03;94512.00;;;7.54;100.00
13314;BME280;6725;48.112;11.604;2023-11-19T04:21:29;94504.22;;;7.56;100.00
13314;BME280;6725;48.112;11.604;2023-11-19T04:23:54;94509.28;;;7.58;100.00
13314;BME280;6725;48.112;11.604;2023-11-19T04:26:19;94510.41;;;7.60;100.00
13314;BME280;6725;48.112;11.604;2023-11-19T04:28:45;94506.47;;;7.65;100.00
13314;BME280;6725;48.112;11.604;2023-11-19T04:31:10;94510.72;;;7.66;100.00
13314;BME280;6725;48.112;11.604;2023-11-19T04:33:35;94513.44;;;7.66;100.00
13314;BME280;6725;48.112;11.604;2023-11-19T04:36:01;94514.22;;;7.66;100.00
13314;BME280;6725;48.112;11.604;2023-11-19T04:38:27;94509.50;;;7.70;100.00
13314;BME280;6725;48.112;11.604;2023-11-19T04:40:52;94510.25;;;7.74;100.00
13314;BME280;6725;48.112;11.604;2023-11-19T04:43:18;94497.00;;;7.76;100.00
13314;BME280;6725;48.112;11.604;2023-11-19T04:45:44;94503.19;;;7.80;100.00
13314;BME280;6725;48.112;11.604;2023-11-19T04:48:09;94502.97;;;7.94;100.00
13314;BME280;6725;48.112;11.604;2023-11-19T04:50:35;94499.84;;;7.99;100.00
13314;BME280;6725;48.112;11.604;2023-11-19T04:53:00;94491.84;;;8.15;100.00
13314;BME280;6725;48.112;11.604;2023-11-19T04:55:27;94480.84;;;8.26;100.00
13314;BME280;6725;48.112;11.604;2023-11-19T04:57:54;94494.94;;;8.44;100.00
13314;BME280;6725;48.112;11.604;2023-11-19T05:00:19;94490.38;;;8.64;100.00
13314;BME280;6725;48.112;11.604;2023-11-19T05:02:46;94478.38;;;8.84;100.00
13314;BME280;6725;48.112;11.604;2023-11-19T05:05:11;94476.72;;;8.90;100.00
13314;BME280;6725;48.112;11.604;2023-11-19T05:07:37;94464.03;;;9.03;100.00
13314;BME280;6725;48.112;11.604;2023-11-19T05:10:03;94466.16;;;9.15;100.00
13314;BME280;6725;48.112;11.604;2023-11-19T05:12:29;94462.97;;;9.20;100.00
13314;BME280;6725;48.112;11.604;2023-11-19T05:14:54;94464.88;;;9.23;100.00
13314;BME280;6725;48.112;11.604;2023-11-19T05:17:20;94459.41;;;9.23;100.00
13314;BME280;6725;48.112;11.604;2023-11-19T05:19:46;94471.22;;;9.36;100.00
13314;BME280;6725;48.112;11.604;2023-11-19T05:22:11;94465.78;;;9.36;100.00
13314;BME280;6725;48.112;11.604;2023-11-19T05:24:38;94465.63;;;9.43;100.00
13314;BME280;6725;48.112;11.604;2023-11-19T05:27:04;94474.09;;;9.49;100.00
13314;BME280;6725;48.112;11.604;2023-11-19T05:29:30;94477.19;;;9.51;100.00
13314;BME280;6725;48.112;11.604;2023-11-19T05:31:55;94489.63;;;9.52;100.00
13314;BME280;6725;48.112;11.604;2023-11-19T05:34:20;94494.28;;;9.51;100.00
13314;BME280;6725;48.112;11.604;2023-11-19T05:36:46;94494.28;;;9.51;100.00
13314;BME280;6725;48.112;11.604;2023-11-19T05:39:12;94487.22;;;9.54;100.00
13314;BME280;6725;48.112;11.604;2023-11-19T05:41:37;94482.63;;;9.51;100.00
13314;BME280;6725;48.112;11.604;2023-11-19T05:44:02;94494.28;;;9.51;100.00
13314;BME280;6725;48.112;11.604;2023-11-19T05:46:28;94489.53;;;9.55;100.00
13314;BME280;6725;48.112;11.604;2023-11-19T05:48:53;94497.38;;;9.53;100.00
13314;BME280;6725;48.112;11.604;2023-11-19T05:51:18;94361.13;;;9.53;100.00
13314;BME280;6725;48.112;11.604;2023-11-19T05:53:44;94438.94;;;9.54;100.00
13314;BME280;6725;48.112;11.604;2023-11-19T05:56:13;94449.84;;;9.54;100.00
13314;BME280;6725;48.112;11.604;2023-11-19T05:58:38;94478.22;;;9.57;100.00
13314;BME280;6725;48.112;11.604;2023-11-19T06:01:05;94485.66;;;9.56;100.00
13314;BME280;6725;48.112;11.604;2023-11-19T06:03:32;94480.19;;;9.56;100.00
13314;BME280;6725;48.112;11.604;2023-11-19T06:05:58;94478.22;;;9.57;100.00
13314;BME280;6725;48.112;11.604;2023-11-19T06:08:23;94480.19;;;9.56;100.00
13314;BME280;6725;48.112;11.604;2023-11-19T06:10:49;94487.88;;;9.61;100.00
13314;BME280;6725;48.112;11.604;2023-11-19T06:13:16;94477.75;;;9.62;100.00
13314;BME280;6725;48.112;11.604;2023-11-19T06:15:42;94483.25;;;9.58;100.00
13314;BME280;6725;48.112;11.604;2023-11-19T06:18:08;94482.06;;;9.59;100.00
13314;BME280;6725;48.112;11.604;2023-11-19T06:20:34;94495.69;;;9.59;100.00
13314;BME280;6725;48.112;11.604;2023-11-19T06:23:00;94412.25;;;9.65;100.00
13314;BME280;6725;48.112;11.604;2023-11-19T06:25:25;94407.56;;;9.66;100.00
13314;BME280;6725;48.112;11.604;2023-11-19T06:27:51;94399.72;;;9.68;100.00
13314;BME280;6725;48.112;11.604;2023-11-19T06:30:17;94401.28;;;9.69;100.00
13314;BME280;6725;48.112;11.604;2023-11-19T06:32:42;94402.03;;;9.69;100.00
13314;BME280;6725;48.112;11.604;2023-11-19T06:35:08;94409.38;;;9.72;100.00
13314;BME280;6725;48.112;11.604;2023-11-19T06:37:35;94409.03;;;9.70;100.00
13314;BME280;6725;48.112;11.604;2023-11-19T06:40:00;94413.63;;;9.73;100.00
13314;BME280;6725;48.112;11.604;2023-11-19T06:42:26;94398.84;;;9.74;100.00
13314;BME280;6725;48.112;11.604;2023-11-19T06:44:51;94399.59;;;9.75;100.00
13314;BME280;6725;48.112;11.604;2023-11-19T06:47:17;94404.97;;;9.78;100.00
13314;BME280;6725;48.112;11.604;2023-11-19T06:49:45;94413.47;;;9.80;100.00
13314;BME280;6725;48.112;11.604;2023-11-19T06:52:11;94425.09;;;9.84;100.00
13314;BME280;6725;48.112;11.604;2023-11-19T06:54:38;94418.09;;;9.83;100.00
13314;BME280;6725;48.112;11.604;2023-11-19T06:57:04;94421.19;;;9.85;100.00
13314;BME280;6725;48.112;11.604;2023-11-19T06:59:30;94407.72;;;9.94;100.00
13314;BME280;6725;48.112;11.604;2023-11-19T07:01:56;94396.13;;;9.90;100.00
13314;BME280;6725;48.112;11.604;2023-11-19T07:04:21;94393.75;;;9.92;100.00
13314;BME280;6725;48.112;11.604;2023-11-19T07:06:46;94396.47;;;9.92;100.00
13314;BME280;6725;48.112;11.604;2023-11-19T07:09:13;94405.78;;;9.95;100.00
13314;BME280;6725;48.112;11.604;2023-11-19T07:11:40;94415.50;;;9.96;100.00
13314;BME280;6725;48.112;11.604;2023-11-19T07:14:07;94397.19;;;9.96;100.00
13314;BME280;6725;48.112;11.604;2023-11-19T07:16:33;94396.66;;;10.01;100.00
13314;BME280;6725;48.112;11.604;2023-11-19T07:19:07;94409.09;;;10.02;100.00
13314;BME280;6725;48.112;11.604;2023-11-19T07:21:32;94423.09;;;10.04;100.00
13314;BME280;6725;48.112;11.604;2023-11-19T07:23:58;94425.84;;;10.04;100.00
13314;BME280;6725;48.112;11.604;2023-11-19T07:26:24;94422.28;;;10.07;100.00
13314;BME280;6725;48.112;11.604;2023-11-19T07:28:49;94436.94;;;10.13;100.00
13314;BME280;6725;48.112;11.604;2023-11-19T07:31:16;94421.25;;;10.18;100.00
13314;BME280;6725;48.112;11.604;2023-11-19T07:33:43;94414.81;;;10.28;100.00
13314;BME280;6725;48.112;11.604;2023-11-19T07:36:09;94422.66;;;10.26;100.00
13314;BME280;6725;48.112;11.604;2023-11-19T07:38:35;94421.78;;;10.29;100.00
13314;BME280;6725;48.112;11.604;2023-11-19T07:41:00;94433.84;;;10.31;100.00
13314;BME280;6725;48.112;11.604;2023-11-19T07:43:26;94448.84;;;10.39;100.00
13314;BME280;6725;48.112;11.604;2023-11-19T07:45:51;94457.78;;;10.40;100.00
13314;BME280;6725;48.112;11.604;2023-11-19T07:48:17;94467.53;;;10.41;100.00
13314;BME280;6725;48.112;11.604;2023-11-19T07:50:48;94466.34;;;10.42;100.00
13314;BME280;6725;48.112;11.604;2023-11-19T07:53:15;94468.72;;;10.40;100.00
13314;BME280;6725;48.112;11.604;2023-11-19T07:55:41;94470.69;;;10.39;100.00
13314;BME280;6725;48.112;11.604;2023-11-19T07:58:06;94481.44;;;10.46;100.00
13314;BME280;6725;48.112;11.604;2023-11-19T08:00:31;94485.03;;;10.43;100.00
13314;BME280;6725;48.112;11.604;2023-11-19T08:02:57;94492.00;;;10.44;100.00
13314;BME280;6725;48.112;11.604;2023-11-19T08:05:22;94496.88;;;10.53;100.00
13314;BME280;6725;48.112;11.604;2023-11-19T08:07:49;94499.25;;;10.51;100.00
13314;BME280;6725;48.112;11.604;2023-11-19T08:10:15;94435.63;;;10.54;100.00
13314;BME280;6725;48.112;11.604;2023-11-19T08:12:40;94429.69;;;10.59;100.00
13314;BME280;6725;48.112;11.604;2023-11-19T08:15:06;94456.09;;;10.62;100.00
13314;BME280;6725;48.112;11.604;2023-11-19T08:17:32;94474.03;;;10.63;100.00
13314;BME280;6725;48.112;11.604;2023-11-19T08:19:57;94494.31;;;10.62;100.00
13314;BME280;6725;48.112;11.604;2023-11-19T08:22:22;94504.34;;;10.68;100.00
13314;BME280;6725;48.112;11.604;2023-11-19T08:24:48;94518.00;;;10.68;100.00
13314;BME280;6725;48.112;11.604;2023-11-19T08:27:13;94530.34;;;10.73;100.00
13314;BME280;6725;48.112;11.604;2023-11-19T08:29:39;94532.75;;;10.87;100.00
13314;BME280;6725;48.112;11.604;2023-11-19T08:32:05;94537.47;;;10.86;100.00
13314;BME280;6725;48.112;11.604;2023-11-19T08:34:31;94542.06;;;10.89;100.00
13314;BME280;6725;48.112;11.604;2023-11-19T08:36:56;94530.38;;;10.89;100.00
13314;BME280;6725;48.112;11.604;2023-11-19T08:39:22;94542.06;;;10.89;100.00
13314;BME280;6725;48.112;11.604;2023-11-19T08:41:47;94539.59;;;10.95;100.00
13314;BME280;6725;48.112;11.604;2023-11-19T08:44:13;94552.56;;;10.91;100.00
13314;BME280;6725;48.112;11.604;2023-11-19T08:46:39;94540.28;;;10.99;100.00
13314;BME280;6725;48.112;11.604;2023-11-19T08:49:05;94545.94;;;11.08;100.00
13314;BME280;6725;48.112;11.604;2023-11-19T08:51:31;94547.03;;;11.10;100.00
13314;BME280;6725;48.112;11.604;2023-11-19T08:53:56;94544.13;;;11.17;100.00
13314;BME280;6725;48.112;11.604;2023-11-19T08:56:22;94556.84;;;11.24;100.00
13314;BME280;6725;48.112;11.604;2023-11-19T08:58:48;94558.72;;;11.27;100.00
13314;BME280;6725;48.112;11.604;2023-11-19T09:01:13;94556.00;;;11.27;100.00
13314;BME280;6725;48.112;11.604;2023-11-19T09:03:38;94544.03;;;11.37;100.00
13314;BME280;6725;48.112;11.604;2023-11-19T09:06:04;94559.06;;;11.29;100.00
13314;BME280;6725;48.112;11.604;2023-11-19T09:08:29;94556.50;;;11.38;100.00
13314;BME280;6725;48.112;11.604;2023-11-19T09:10:54;94560.78;;;11.23;100.00
13314;BME280;6725;48.112;11.604;2023-11-19T09:13:20;94567.28;;;11.29;100.00
13314;BME280;6725;48.112;11.604;2023-11-19T09:15:45;94567.28;;;11.29;100.00
13314;BME280;6725;48.112;11.604;2023-11-19T09:18:10;94566.94;;;11.27;100.00
13314;BME280;6725;48.112;11.604;2023-11-19T09:20:36;94566.94;;;11.27;100.00
13314;BME280;6725;48.112;11.604;2023-11-19T09:23:06;94571.59;;;11.26;100.00
13314;BME280;6725;48.112;11.604;2023-11-19T09:25:31;94573.84;;;11.31;100.00
13314;BME280;6725;48.112;11.604;2023-11-19T09:27:57;94594.09;;;11.34;100.00
13314;BME280;6725;48.112;11.604;2023-11-19T09:30:22;94596.47;;;11.32;100.00
13314;BME280;6725;48.112;11.604;2023-11-19T09:32:48;94593.25;;;11.37;100.00
13314;BME280;6725;48.112;11.604;2023-11-19T09:35:13;94587.59;;;11.44;100.00
13314;BME280;6725;48.112;11.604;2023-11-19T09:37:40;94603.16;;;11.47;100.00
13314;BME280;6725;48.112;11.604;2023-11-19T09:40:06;94602.19;;;11.53;100.00
13314;BME280;6725;48.112;11.604;2023-11-19T09:42:42;94611.72;;;11.65;100.00
13314;BME280;6725;48.112;11.604;2023-11-19T09:45:13;94608.44;;;11.54;100.00
13314;BME280;6725;48.112;11.604;2023-11-19T09:47:39;94612.34;;;11.53;100.00
13314;BME280;6725;48.112;11.604;2023-11-19T09:50:05;94606.31;;;11.45;100.00
13314;BME280;6725;48.112;11.604;2023-11-19T09:52:31;94613.22;;;11.50;100.00
13314;BME280;6725;48.112;11.604;2023-11-19T09:54:56;94604.50;;;11.55;100.00
13314;BME280;6725;48.112;11.604;2023-11-19T09:57:22;94598.50;;;11.60;100.00
13314;BME280;6725;48.112;11.604;2023-11-19T09:59:47;94600.94;;;11.74;100.00
13314;BME280;6725;48.112;11.604;2023-11-19T10:02:14;94612.22;;;11.76;100.00
13314;BME280;6725;48.112;11.604;2023-11-19T10:04:40;94610.84;;;11.84;100.00
13314;BME280;6725;48.112;11.604;2023-11-19T10:07:07;94612.19;;;11.92;100.00
13314;BME280;6725;48.112;11.604;2023-11-19T10:09:32;94606.16;;;12.13;100.00
13314;BME280;6725;48.112;11.604;2023-11-19T10:11:57;94608.34;;;12.18;100.00
13314;BME280;6725;48.112;11.604;2023-11-19T10:14:26;94610.78;;;12.28;100.00
13314;BME280;6725;48.112;11.604;2023-11-19T10:16:54;94612.19;;;12.20;100.00
13314;BME280;6725;48.112;11.604;2023-11-19T10:19:20;94625.38;;;12.25;100.00
13314;BME280;6725;48.112;11.604;2023-11-19T10:21:46;94620.81;;;12.35;100.00
13314;BME280;6725;48.112;11.604;2023-11-19T10:24:11;94630.53;;;12.36;100.00
13314;BME280;6725;48.112;11.604;2023-11-19T10:26:37;94641.31;;;12.43;100.00
13314;BME280;6725;48.112;11.604;2023-11-19T10:29:02;94632.28;;;12.58;100.00
13314;BME280;6725;48.112;11.604;2023-11-19T10:31:29;94633.47;;;12.70;100.00
13314;BME280;6725;48.112;11.604;2023-11-19T10:33:54;94631.72;;;13.04;100.00
13314;BME280;6725;48.112;11.604;2023-11-19T10:36:20;94640.59;;;13.21;100.00
13314;BME280;6725;48.112;11.604;2023-11-19T10:38:53;94654.22;;;13.12;100.00
13314;BME280;6725;48.112;11.604;2023-11-19T10:41:32;94656.41;;;13.17;100.00
13314;BME280;6725;48.112;11.604;2023-11-19T10:43:58;94665.50;;;13.26;100.00
13314;BME280;6725;48.112;11.604;2023-11-19T10:46:36;94677.13;;;13.43;100.00
13314;BME280;6725;48.112;11.604;2023-11-19T10:49:01;94681.31;;;13.73;100.00
13314;BME280;6725;48.112;11.604;2023-11-19T10:51:27;94684.25;;;14.03;100.00
13314;BME280;6725;48.112;11.604;2023-11-19T10:53:58;94694.72;;;14.17;100.00
13314;BME280;6725;48.112;11.604;2023-11-19T10:56:29;94659.28;;;14.10;100.00
13314;BME280;6725;48.112;11.604;2023-11-19T10:58:56;94647.56;;;13.97;100.00
13314;BME280;6725;48.112;11.604;2023-11-19T11:01:42;94528.25;;;13.89;100.00
13314;BME280;6725;48.112;11.604;2023-11-19T11:04:19;94398.88;;;13.78;100.00
13314;BME280;6725;48.112;11.604;2023-11-19T11:06:47;94300.19;;;13.75;100.00
13314;BME280;6725;48.112;11.604;2023-11-19T11:09:13;94216.53;;;13.88;100.00
13314;BME280;6725;48.112;11.604;2023-11-19T11:11:40;94168.03;;;13.67;100.00
13314;BME280;6725;48.112;11.604;2023-11-19T11:14:11;94143.00;;;13.65;100.00
13314;BME280;6725;48.112;11.604;2023-11-19T11:16:37;94129.72;;;13.55;100.00
13314;BME280;6725;48.112;11.604;2023-11-19T11:19:06;94113.16;;;13.67;100.00
13314;BME280;6725;48.112;11.604;2023-11-19T11:21:32;94086.63;;;13.91;100.00
13314;BME280;6725;48.112;11.604;2023-11-19T11:24:40;94069.41;;;13.82;100.00
13314;BME280;6725;48.112;11.604;2023-11-19T11:27:09;94092.72;;;13.77;100.00
13314;BME280;6725;48.112;11.604;2023-11-19T11:29:58;94077.97;;;13.84;100.00
13314;BME280;6725;48.112;11.604;2023-11-19T11:32:44;94097.66;;;14.00;100.00
13314;BME280;6725;48.112;11.604;2023-11-19T11:35:31;94112.28;;;14.06;100.00
13314;BME280;6725;48.112;11.604;2023-11-19T11:38:02;94128.78;;;14.15;100.00
13314;BME280;6725;48.112;11.604;2023-11-19T11:40:29;94142.06;;;14.26;100.00
13314;BME280;6725;48.112;11.604;2023-11-19T11:42:54;94150.75;;;14.24;100.00
13314;BME280;6725;48.112;11.604;2023-11-19T11:45:35;94139.63;;;14.46;100.00
13314;BME280;6725;48.112;11.604;2023-11-19T11:48:11;94166.81;;;14.35;100.00
13314;BME280;6725;48.112;11.604;2023-11-19T11:50:48;94163.91;;;14.47;100.00
13314;BME280;6725;48.112;11.604;2023-11-19T11:53:19;94187.72;;;14.59;100.00
13314;BME280;6725;48.112;11.604;2023-11-19T11:58:13;94212.00;;;14.79;100.00
13314;BME280;6725;48.112;11.604;2023-11-19T12:00:40;94239.47;;;14.97;100.00
13314;BME280;6725;48.112;11.604;2023-11-19T12:03:07;94257.03;;;14.90;100.00
13314;BME280;6725;48.112;11.604;2023-11-19T12:05:38;94285.13;;;14.85;100.00
13314;BME280;6725;48.112;11.604;2023-11-19T12:08:05;94287.88;;;14.85;100.00
13314;BME280;6725;48.112;11.604;2023-11-19T12:10:36;94285.28;;;14.91;100.00
13314;BME280;6725;48.112;11.604;2023-11-19T12:13:04;94281.47;;;14.88;100.00
13314;BME280;6725;48.112;11.604;2023-11-19T12:15:32;94289.09;;;14.84;100.00
13314;BME280;6725;48.112;11.604;2023-11-19T12:17:58;94306.19;;;14.79;100.00
13314;BME280;6725;48.112;11.604;2023-11-19T12:20:25;94309.25;;;14.81;100.00
13314;BME280;6725;48.112;11.604;2023-11-19T12:22:51;94322.25;;;14.90;100.00
13314;BME280;6725;48.112;11.604;2023-11-19T12:25:18;94321.78;;;15.00;100.00
13314;BME280;6725;48.112;11.604;2023-11-19T12:27:53;94324.22;;;14.80;100.00
13314;BME280;6725;48.112;11.604;2023-11-19T12:30:23;94328.94;;;14.71;100.00
13314;BME280;6725;48.112;11.604;2023-11-19T12:32:52;94315.34;;;14.67;100.00
13314;BME280;6725;48.112;11.604;2023-11-19T12:35:21;94326.91;;;14.53;100.00
13314;BME280;6725;48.112;11.604;2023-11-19T12:37:48;94323.25;;;14.56;100.00
13314;BME280;6725;48.112;11.604;2023-11-19T12:40:24;94315.91;;;14.53;100.00
13314;BME280;6725;48.112;11.604;2023-11-19T12:42:54;94314.69;;;14.45;100.00
13314;BME280;6725;48.112;11.604;2023-11-19T12:45:19;94317.75;;;14.47;100.00
13314;BME280;6725;48.112;11.604;2023-11-19T12:47:47;94319.56;;;14.41;100.00
13314;BME280;6725;48.112;11.604;2023-11-19T12:50:14;94319.88;;;14.43;100.00
13314;BME280;6725;48.112;11.604;2023-11-19T12:52:39;94325.66;;;14.45;100.00
13314;BME280;6725;48.112;11.604;2023-11-19T12:55:23;94319.59;;;14.59;100.00